sensor_id;sensor_type;location;lat;lon;timestamp;temperature;humidity
31619;DHT22;18230;51.502;7.108;2023-07-02T00:03:21;18.50;99.90
31619;DHT22;18230;51.502;7.108;2023-07-02T00:08:22;18.40;99.90
31619;DHT22;18230;51.502;7.108;2023-07-02T00:13:23;18.50;99.90
31619;DHT22;18230;51.502;7.108;2023-07-02T00:18:24;18.40;99.90
31619;DHT22;18230;51.502;7.108;2023-07-02T00:23:29;18.40;99.90
31619;DHT22;18230;51.502;7.108;2023-07-02T00:28:30;18.40;99.90
31619;DHT22;18230;51.502;7.108;2023-07-02T00:33:31;18.40;99.90
31619;DHT22;18230;51.502;7.108;2023-07-02T00:38:32;18.40;99.90
31619;DHT22;18230;51.502;7.108;2023-07-02T00:43:33;18.30;99.90
31619;DHT22;18230;51.502;7.108;2023-07-02T00:48:34;18.40;99.90
31619;DHT22;18230;51.502;7.108;2023-07-02T00:53:35;18.30;99.90
31619;DHT22;18230;51.502;7.108;2023-07-02T00:58:39;18.30;99.90
31619;DHT22;18230;51.502;7.108;2023-07-02T01:03:59;18.30;99.90
31619;DHT22;18230;51.502;7.108;2023-07-02T01:09:06;18.20;99.90
31619;DHT22;18230;51.502;7.108;2023-07-02T01:19:21;18.20;99.90
31619;DHT22;18230;51.502;7.108;2023-07-02T01:24:22;18.10;99.90
31619;DHT22;18230;51.502;7.108;2023-07-02T01:29:23;18.00;99.90
31619;DHT22;18230;51.502;7.108;2023-07-02T01:34:24;17.90;99.90
31619;DHT22;18230;51.502;7.108;2023-07-02T01:39:24;17.80;99.90
31619;DHT22;18230;51.502;7.108;2023-07-02T01:44:25;17.70;99.90
31619;DHT22;18230;51.502;7.108;2023-07-02T01:49:26;17.70;99.90
31619;DHT22;18230;51.502;7.108;2023-07-02T01:54:27;17.70;99.90
31619;DHT22;18230;51.502;7.108;2023-07-02T01:59:28;17.70;99.90
31619;DHT22;18230;51.502;7.108;2023-07-02T02:04:28;17.70;99.90
31619;DHT22;18230;51.502;7.108;2023-07-02T02:09:29;17.70;99.90
31619;DHT22;18230;51.502;7.108;2023-07-02T02:14:33;17.70;99.90
31619;DHT22;18230;51.502;7.108;2023-07-02T02:19:34;17.70;99.90
31619;DHT22;18230;51.502;7.108;2023-07-02T02:24:35;17.70;99.90
31619;DHT22;18230;51.502;7.108;2023-07-02T02:29:36;17.70;99.90
31619;DHT22;18230;51.502;7.108;2023-07-02T02:34:36;17.60;99.90
31619;DHT22;18230;51.502;7.108;2023-07-02T02:39:37;17.60;99.90
31619;DHT22;18230;51.502;7.108;2023-07-02T02:44:38;17.60;99.90
31619;DHT22;18230;51.502;7.108;2023-07-02T02:49:39;17.60;99.90
31619;DHT22;18230;51.502;7.108;2023-07-02T02:54:40;17.60;99.90
31619;DHT22;18230;51.502;7.108;2023-07-02T02:59:41;17.60;99.90
31619;DHT22;18230;51.502;7.108;2023-07-02T03:04:41;17.60;99.90
31619;DHT22;18230;51.502;7.108;2023-07-02T03:09:44;17.60;99.90
31619;DHT22;18230;51.502;7.108;2023-07-02T03:14:45;17.50;99.90
31619;DHT22;18230;51.502;7.108;2023-07-02T03:19:48;17.50;99.90
31619;DHT22;18230;51.502;7.108;2023-07-02T03:24:48;17.50;99.90
31619;DHT22;18230;51.502;7.108;2023-07-02T03:29:49;17.50;99.90
31619;DHT22;18230;51.502;7.108;2023-07-02T03:34:50;17.40;99.90
31619;DHT22;18230;51.502;7.108;2023-07-02T03:39:50;17.50;99.90
31619;DHT22;18230;51.502;7.108;2023-07-02T03:44:51;17.40;99.90
31619;DHT22;18230;51.502;7.108;2023-07-02T03:49:52;17.40;99.90
31619;DHT22;18230;51.502;7.108;2023-07-02T03:54:54;17.40;99.90
31619;DHT22;18230;51.502;7.108;2023-07-02T03:59:55;17.40;99.90
31619;DHT22;18230;51.502;7.108;2023-07-02T04:04:55;17.40;99.90
31619;DHT22;18230;51.502;7.108;2023-07-02T04:09:56;17.40;99.90
31619;DHT22;18230;51.502;7.108;2023-07-02T04:14:57;17.50;99.90
31619;DHT22;18230;51.502;7.108;2023-07-02T04:20:00;17.50;99.90
31619;DHT22;18230;51.502;7.108;2023-07-02T04:25:03;17.50;99.90
31619;DHT22;18230;51.502;7.108;2023-07-02T04:30:05;17.40;99.90
31619;DHT22;18230;51.502;7.108;2023-07-02T04:35:08;17.40;99.90
31619;DHT22;18230;51.502;7.108;2023-07-02T04:40:09;17.40;99.90
31619;DHT22;18230;51.502;7.108;2023-07-02T04:45:10;17.40;99.90
31619;DHT22;18230;51.502;7.108;2023-07-02T04:50:13;17.50;99.90
31619;DHT22;18230;51.502;7.108;2023-07-02T04:55:14;17.60;99.90
31619;DHT22;18230;51.502;7.108;2023-07-02T05:00:15;17.60;99.90
31619;DHT22;18230;51.502;7.108;2023-07-02T05:05:17;17.60;99.90
31619;DHT22;18230;51.502;7.108;2023-07-02T05:10:18;17.70;99.90
31619;DHT22;18230;51.502;7.108;2023-07-02T05:15:19;17.70;99.90
31619;DHT22;18230;51.502;7.108;2023-07-02T05:20:19;17.70;99.90
31619;DHT22;18230;51.502;7.108;2023-07-02T05:25:20;17.80;99.90
31619;DHT22;18230;51.502;7.108;2023-07-02T05:30:21;17.80;99.90
31619;DHT22;18230;51.502;7.108;2023-07-02T05:35:21;17.90;99.90
31619;DHT22;18230;51.502;7.108;2023-07-02T05:40:22;17.90;99.90
31619;DHT22;18230;51.502;7.108;2023-07-02T05:45:23;17.90;99.90
31619;DHT22;18230;51.502;7.108;2023-07-02T05:50:23;18.00;99.90
31619;DHT22;18230;51.502;7.108;2023-07-02T05:55:24;18.10;99.90
31619;DHT22;18230;51.502;7.108;2023-07-02T06:00:25;18.30;99.90
31619;DHT22;18230;51.502;7.108;2023-07-02T06:05:26;18.30;99.90
31619;DHT22;18230;51.502;7.108;2023-07-02T06:10:26;18.30;99.90
31619;DHT22;18230;51.502;7.108;2023-07-02T06:15:27;18.40;99.90
31619;DHT22;18230;51.502;7.108;2023-07-02T06:20:28;18.50;99.90
31619;DHT22;18230;51.502;7.108;2023-07-02T06:25:29;18.60;99.90
31619;DHT22;18230;51.502;7.108;2023-07-02T06:30:29;18.80;99.90
31619;DHT22;18230;51.502;7.108;2023-07-02T06:35:30;18.90;99.90
31619;DHT22;18230;51.502;7.108;2023-07-02T06:40:31;19.00;99.90
31619;DHT22;18230;51.502;7.108;2023-07-02T06:45:32;19.20;99.90
31619;DHT22;18230;51.502;7.108;2023-07-02T06:50:32;19.40;99.90
31619;DHT22;18230;51.502;7.108;2023-07-02T06:55:33;19.40;99.90
31619;DHT22;18230;51.502;7.108;2023-07-02T07:00:34;19.30;99.90
31619;DHT22;18230;51.502;7.108;2023-07-02T07:05:37;19.40;99.90
31619;DHT22;18230;51.502;7.108;2023-07-02T07:10:38;19.50;99.90
31619;DHT22;18230;51.502;7.108;2023-07-02T07:15:39;19.60;99.90
31619;DHT22;18230;51.502;7.108;2023-07-02T07:20:41;19.70;99.90
31619;DHT22;18230;51.502;7.108;2023-07-02T07:25:45;19.90;99.90
31619;DHT22;18230;51.502;7.108;2023-07-02T07:30:45;20.10;99.90
31619;DHT22;18230;51.502;7.108;2023-07-02T07:35:46;20.10;99.90
31619;DHT22;18230;51.502;7.108;2023-07-02T07:40:47;19.90;99.90
31619;DHT22;18230;51.502;7.108;2023-07-02T07:45:48;19.80;99.90
31619;DHT22;18230;51.502;7.108;2023-07-02T07:50:49;19.90;99.90
31619;DHT22;18230;51.502;7.108;2023-07-02T07:55:50;20.00;99.90
31619;DHT22;18230;51.502;7.108;2023-07-02T08:00:51;19.80;99.90
31619;DHT22;18230;51.502;7.108;2023-07-02T08:05:52;19.80;99.90
31619;DHT22;18230;51.502;7.108;2023-07-02T08:10:52;19.90;99.90
31619;DHT22;18230;51.502;7.108;2023-07-02T08:15:53;20.00;99.90
31619;DHT22;18230;51.502;7.108;2023-07-02T08:20:54;20.20;99.90
31619;DHT22;18230;51.502;7.108;2023-07-02T08:25:55;20.30;99.90
31619;DHT22;18230;51.502;7.108;2023-07-02T08:30:55;20.40;99.90
31619;DHT22;18230;51.502;7.108;2023-07-02T08:35:59;20.40;99.90
31619;DHT22;18230;51.502;7.108;2023-07-02T08:41:03;20.30;99.90
31619;DHT22;18230;51.502;7.108;2023-07-02T08:46:07;20.50;99.90
31619;DHT22;18230;51.502;7.108;2023-07-02T08:51:14;20.60;99.90
31619;DHT22;18230;51.502;7.108;2023-07-02T08:56:21;20.80;99.90
31619;DHT22;18230;51.502;7.108;2023-07-02T09:01:26;20.60;99.90
31619;DHT22;18230;51.502;7.108;2023-07-02T09:06:33;20.40;99.90
31619;DHT22;18230;51.502;7.108;2023-07-02T09:11:35;20.40;99.90
31619;DHT22;18230;51.502;7.108;2023-07-02T09:16:35;20.60;99.90
31619;DHT22;18230;51.502;7.108;2023-07-02T09:26:48;20.60;99.90
31619;DHT22;18230;51.502;7.108;2023-07-02T09:31:54;20.60;99.90
31619;DHT22;18230;51.502;7.108;2023-07-02T09:36:55;20.90;99.90
31619;DHT22;18230;51.502;7.108;2023-07-02T09:41:57;21.00;99.90
31619;DHT22;18230;51.502;7.108;2023-07-02T09:47:04;21.10;99.90
31619;DHT22;18230;51.502;7.108;2023-07-02T09:52:07;21.00;99.90
31619;DHT22;18230;51.502;7.108;2023-07-02T09:57:08;21.10;99.90
31619;DHT22;18230;51.502;7.108;2023-07-02T10:02:10;21.20;99.90
31619;DHT22;18230;51.502;7.108;2023-07-02T10:07:12;20.90;99.90
31619;DHT22;18230;51.502;7.108;2023-07-02T10:17:33;20.80;99.90
31619;DHT22;18230;51.502;7.108;2023-07-02T10:27:45;20.90;99.90
31619;DHT22;18230;51.502;7.108;2023-07-02T10:32:45;20.90;99.90
31619;DHT22;18230;51.502;7.108;2023-07-02T10:37:46;20.70;99.90
31619;DHT22;18230;51.502;7.108;2023-07-02T10:42:49;20.60;99.90
31619;DHT22;18230;51.502;7.108;2023-07-02T10:47:50;20.90;99.90
31619;DHT22;18230;51.502;7.108;2023-07-02T10:52:50;21.00;99.90
31619;DHT22;18230;51.502;7.108;2023-07-02T10:58:06;21.10;99.90
31619;DHT22;18230;51.502;7.108;2023-07-02T11:03:19;21.30;99.90
31619;DHT22;18230;51.502;7.108;2023-07-02T11:08:20;21.30;99.90
31619;DHT22;18230;51.502;7.108;2023-07-02T11:13:22;21.20;99.90
31619;DHT22;18230;51.502;7.108;2023-07-02T11:18:22;21.10;99.90
31619;DHT22;18230;51.502;7.108;2023-07-02T11:23:24;21.20;99.90
31619;DHT22;18230;51.502;7.108;2023-07-02T11:28:26;21.00;99.90
31619;DHT22;18230;51.502;7.108;2023-07-02T11:33:35;21.30;99.90
31619;DHT22;18230;51.502;7.108;2023-07-02T11:38:39;21.50;99.90
31619;DHT22;18230;51.502;7.108;2023-07-02T11:43:39;21.50;99.90
31619;DHT22;18230;51.502;7.108;2023-07-02T11:48:40;21.30;99.90
31619;DHT22;18230;51.502;7.108;2023-07-02T11:53:41;21.50;99.90
31619;DHT22;18230;51.502;7.108;2023-07-02T11:58:42;21.80;99.90
31619;DHT22;18230;51.502;7.108;2023-07-02T12:03:44;21.90;99.60
31619;DHT22;18230;51.502;7.108;2023-07-02T12:08:45;22.20;99.30
31619;DHT22;18230;51.502;7.108;2023-07-02T12:13:46;21.90;97.00
31619;DHT22;18230;51.502;7.108;2023-07-02T12:18:47;21.80;98.10
31619;DHT22;18230;51.502;7.108;2023-07-02T12:23:47;21.80;98.10
31619;DHT22;18230;51.502;7.108;2023-07-02T12:28:48;22.00;98.90
31619;DHT22;18230;51.502;7.108;2023-07-02T12:33:49;22.20;97.80
31619;DHT22;18230;51.502;7.108;2023-07-02T12:38:49;22.40;98.70
31619;DHT22;18230;51.502;7.108;2023-07-02T12:43:50;22.60;98.50
31619;DHT22;18230;51.502;7.108;2023-07-02T12:48:51;22.50;97.00
31619;DHT22;18230;51.502;7.108;2023-07-02T12:53:51;22.50;97.20
31619;DHT22;18230;51.502;7.108;2023-07-02T12:58:52;22.40;96.90
31619;DHT22;18230;51.502;7.108;2023-07-02T13:03:53;22.40;96.20
31619;DHT22;18230;51.502;7.108;2023-07-02T13:08:54;22.50;97.40
31619;DHT22;18230;51.502;7.108;2023-07-02T13:13:56;22.20;97.70
31619;DHT22;18230;51.502;7.108;2023-07-02T13:18:56;22.50;97.10
31619;DHT22;18230;51.502;7.108;2023-07-02T13:23:57;22.60;97.70
31619;DHT22;18230;51.502;7.108;2023-07-02T13:28:58;22.70;97.40
31619;DHT22;18230;51.502;7.108;2023-07-02T13:33:59;22.70;97.40
31619;DHT22;18230;51.502;7.108;2023-07-02T13:38:59;22.70;97.20
31619;DHT22;18230;51.502;7.108;2023-07-02T13:44:00;23.00;97.20
31619;DHT22;18230;51.502;7.108;2023-07-02T13:49:01;23.50;97.30
31619;DHT22;18230;51.502;7.108;2023-07-02T13:54:02;23.30;97.10
31619;DHT22;18230;51.502;7.108;2023-07-02T13:59:03;22.90;97.00
31619;DHT22;18230;51.502;7.108;2023-07-02T14:04:04;23.20;97.10
31619;DHT22;18230;51.502;7.108;2023-07-02T14:09:05;23.40;96.70
31619;DHT22;18230;51.502;7.108;2023-07-02T14:14:07;23.40;96.90
31619;DHT22;18230;51.502;7.108;2023-07-02T14:19:07;23.20;97.80
31619;DHT22;18230;51.502;7.108;2023-07-02T14:24:08;23.80;96.90
31619;DHT22;18230;51.502;7.108;2023-07-02T14:29:09;23.90;96.50
31619;DHT22;18230;51.502;7.108;2023-07-02T14:34:10;24.10;96.80
31619;DHT22;18230;51.502;7.108;2023-07-02T14:39:11;23.90;96.60
31619;DHT22;18230;51.502;7.108;2023-07-02T14:44:11;24.20;96.40
31619;DHT22;18230;51.502;7.108;2023-07-02T14:49:14;24.10;96.60
31619;DHT22;18230;51.502;7.108;2023-07-02T14:54:15;23.90;97.00
31619;DHT22;18230;51.502;7.108;2023-07-02T14:59:15;24.10;95.60
31619;DHT22;18230;51.502;7.108;2023-07-02T15:04:16;24.70;95.60
31619;DHT22;18230;51.502;7.108;2023-07-02T15:09:17;24.00;94.50
31619;DHT22;18230;51.502;7.108;2023-07-02T15:14:19;23.40;95.40
31619;DHT22;18230;51.502;7.108;2023-07-02T15:19:19;23.40;96.10
31619;DHT22;18230;51.502;7.108;2023-07-02T15:24:20;23.30;96.80
31619;DHT22;18230;51.502;7.108;2023-07-02T15:29:21;23.40;97.20
31619;DHT22;18230;51.502;7.108;2023-07-02T15:34:22;23.40;96.80
31619;DHT22;18230;51.502;7.108;2023-07-02T15:39:22;24.10;96.60
31619;DHT22;18230;51.502;7.108;2023-07-02T15:44:25;23.70;96.30
31619;DHT22;18230;51.502;7.108;2023-07-02T15:49:26;24.10;96.00
31619;DHT22;18230;51.502;7.108;2023-07-02T15:54:27;23.90;95.00
31619;DHT22;18230;51.502;7.108;2023-07-02T15:59:28;24.60;94.60
31619;DHT22;18230;51.502;7.108;2023-07-02T16:04:28;24.80;92.30
31619;DHT22;18230;51.502;7.108;2023-07-02T16:09:29;24.10;92.60
31619;DHT22;18230;51.502;7.108;2023-07-02T16:14:30;23.80;93.20
31619;DHT22;18230;51.502;7.108;2023-07-02T16:19:30;23.80;93.70
31619;DHT22;18230;51.502;7.108;2023-07-02T16:24:33;23.90;93.20
31619;DHT22;18230;51.502;7.108;2023-07-02T16:29:33;24.00;93.10
31619;DHT22;18230;51.502;7.108;2023-07-02T16:34:34;24.00;92.70
31619;DHT22;18230;51.502;7.108;2023-07-02T16:39:35;24.40;92.30
31619;DHT22;18230;51.502;7.108;2023-07-02T16:44:35;23.90;92.10
31619;DHT22;18230;51.502;7.108;2023-07-02T16:49:36;24.10;92.30
31619;DHT22;18230;51.502;7.108;2023-07-02T16:54:38;24.30;91.50
31619;DHT22;18230;51.502;7.108;2023-07-02T16:59:38;23.90;91.80
31619;DHT22;18230;51.502;7.108;2023-07-02T17:04:39;24.00;92.00
31619;DHT22;18230;51.502;7.108;2023-07-02T17:09:40;24.00;91.10
31619;DHT22;18230;51.502;7.108;2023-07-02T17:14:46;24.30;90.70
31619;DHT22;18230;51.502;7.108;2023-07-02T17:19:49;24.00;91.20
31619;DHT22;18230;51.502;7.108;2023-07-02T17:24:51;24.20;91.60
31619;DHT22;18230;51.502;7.108;2023-07-02T17:29:54;24.10;90.80
31619;DHT22;18230;51.502;7.108;2023-07-02T17:34:56;23.90;91.30
31619;DHT22;18230;51.502;7.108;2023-07-02T17:39:58;24.50;91.10
31619;DHT22;18230;51.502;7.108;2023-07-02T17:44:59;24.30;90.90
31619;DHT22;18230;51.502;7.108;2023-07-02T17:50:01;24.10;91.60
31619;DHT22;18230;51.502;7.108;2023-07-02T17:55:02;24.10;91.20
31619;DHT22;18230;51.502;7.108;2023-07-02T18:00:03;23.90;91.20
31619;DHT22;18230;51.502;7.108;2023-07-02T18:05:05;23.50;91.70
31619;DHT22;18230;51.502;7.108;2023-07-02T18:10:06;23.30;92.20
31619;DHT22;18230;51.502;7.108;2023-07-02T18:15:07;23.30;92.40
31619;DHT22;18230;51.502;7.108;2023-07-02T18:20:08;23.20;92.50
31619;DHT22;18230;51.502;7.108;2023-07-02T18:25:09;23.10;92.80
31619;DHT22;18230;51.502;7.108;2023-07-02T18:30:10;22.90;93.80
31619;DHT22;18230;51.502;7.108;2023-07-02T18:35:13;22.80;93.70
31619;DHT22;18230;51.502;7.108;2023-07-02T18:40:14;22.90;93.90
31619;DHT22;18230;51.502;7.108;2023-07-02T18:45:15;22.90;94.00
31619;DHT22;18230;51.502;7.108;2023-07-02T18:50:18;22.80;94.20
31619;DHT22;18230;51.502;7.108;2023-07-02T18:55:19;22.80;94.80
31619;DHT22;18230;51.502;7.108;2023-07-02T19:00:20;22.60;95.30
31619;DHT22;18230;51.502;7.108;2023-07-02T19:05:21;22.60;95.30
31619;DHT22;18230;51.502;7.108;2023-07-02T19:10:21;22.40;95.20
31619;DHT22;18230;51.502;7.108;2023-07-02T19:15:22;22.30;95.20
31619;DHT22;18230;51.502;7.108;2023-07-02T19:20:23;22.20;95.80
31619;DHT22;18230;51.502;7.108;2023-07-02T19:25:24;22.20;95.70
31619;DHT22;18230;51.502;7.108;2023-07-02T19:30:25;22.10;96.30
31619;DHT22;18230;51.502;7.108;2023-07-02T19:35:25;22.00;96.10
31619;DHT22;18230;51.502;7.108;2023-07-02T19:40:26;22.00;96.70
31619;DHT22;18230;51.502;7.108;2023-07-02T19:45:27;22.00;96.90
31619;DHT22;18230;51.502;7.108;2023-07-02T19:50:28;22.00;96.90
31619;DHT22;18230;51.502;7.108;2023-07-02T19:55:32;22.00;96.90
31619;DHT22;18230;51.502;7.108;2023-07-02T20:00:33;21.90;96.90
31619;DHT22;18230;51.502;7.108;2023-07-02T20:05:34;21.90;97.20
31619;DHT22;18230;51.502;7.108;2023-07-02T20:10:35;21.80;97.40
31619;DHT22;18230;51.502;7.108;2023-07-02T20:15:36;21.60;97.80
31619;DHT22;18230;51.502;7.108;2023-07-02T20:20:37;21.50;98.20
31619;DHT22;18230;51.502;7.108;2023-07-02T20:25:38;21.30;98.60
31619;DHT22;18230;51.502;7.108;2023-07-02T20:30:39;21.30;98.90
31619;DHT22;18230;51.502;7.108;2023-07-02T20:35:40;21.30;99.20
31619;DHT22;18230;51.502;7.108;2023-07-02T20:40:41;21.20;99.90
31619;DHT22;18230;51.502;7.108;2023-07-02T20:45:42;21.00;99.90
31619;DHT22;18230;51.502;7.108;2023-07-02T20:50:43;20.90;99.90
31619;DHT22;18230;51.502;7.108;2023-07-02T20:55:55;20.80;99.90
31619;DHT22;18230;51.502;7.108;2023-07-02T21:01:04;20.70;99.90
31619;DHT22;18230;51.502;7.108;2023-07-02T21:06:09;20.60;99.90
31619;DHT22;18230;51.502;7.108;2023-07-02T21:11:10;20.50;99.90
31619;DHT22;18230;51.502;7.108;2023-07-02T21:16:10;20.40;99.90
31619;DHT22;18230;51.502;7.108;2023-07-02T21:21:11;20.40;99.90
31619;DHT22;18230;51.502;7.108;2023-07-02T21:26:12;20.40;99.90
31619;DHT22;18230;51.502;7.108;2023-07-02T21:31:13;20.40;99.90
31619;DHT22;18230;51.502;7.108;2023-07-02T21:36:14;20.30;99.90
31619;DHT22;18230;51.502;7.108;2023-07-02T21:41:16;20.20;99.90
31619;DHT22;18230;51.502;7.108;2023-07-02T21:46:18;20.10;99.90
31619;DHT22;18230;51.502;7.108;2023-07-02T21:51:18;20.00;99.90
31619;DHT22;18230;51.502;7.108;2023-07-02T21:56:20;19.90;99.90
31619;DHT22;18230;51.502;7.108;2023-07-02T22:01:25;19.80;99.90
31619;DHT22;18230;51.502;7.108;2023-07-02T22:06:26;19.80;99.90
31619;DHT22;18230;51.502;7.108;2023-07-02T22:11:27;19.80;99.90
31619;DHT22;18230;51.502;7.108;2023-07-02T22:16:28;19.70;99.90
31619;DHT22;18230;51.502;7.108;2023-07-02T22:21:31;19.70;99.90
31619;DHT22;18230;51.502;7.108;2023-07-02T22:26:32;19.60;99.90
31619;DHT22;18230;51.502;7.108;2023-07-02T22:31:32;19.60;99.90
31619;DHT22;18230;51.502;7.108;2023-07-02T22:36:33;19.50;99.90
31619;DHT22;18230;51.502;7.108;2023-07-02T22:41:34;19.50;99.90
31619;DHT22;18230;51.502;7.108;2023-07-02T22:46:34;19.50;99.90
31619;DHT22;18230;51.502;7.108;2023-07-02T22:51:35;19.50;99.90
31619;DHT22;18230;51.502;7.108;2023-07-02T22:56:36;19.40;99.90
31619;DHT22;18230;51.502;7.108;2023-07-02T23:01:37;19.40;99.90
31619;DHT22;18230;51.502;7.108;2023-07-02T23:06:37;19.30;99.90
31619;DHT22;18230;51.502;7.108;2023-07-02T23:11:39;19.00;99.90
31619;DHT22;18230;51.502;7.108;2023-07-02T23:16:43;18.80;99.90
31619;DHT22;18230;51.502;7.108;2023-07-02T23:21:44;18.70;99.90
31619;DHT22;18230;51.502;7.108;2023-07-02T23:26:48;18.50;99.90
31619;DHT22;18230;51.502;7.108;2023-07-02T23:31:49;18.40;99.90
31619;DHT22;18230;51.502;7.108;2023-07-02T23:36:50;18.20;99.90
31619;DHT22;18230;51.502;7.108;2023-07-02T23:41:50;18.10;99.90
31619;DHT22;18230;51.502;7.108;2023-07-02T23:46:51;18.10;99.90
31619;DHT22;18230;51.502;7.108;2023-07-02T23:51:52;18.20;99.90
31619;DHT22;18230;51.502;7.108;2023-07-02T23:56:52;18.20;99.90
